sensor_id;sensor_type;location;lat;lon;timestamp;P1;durP1;ratioP1;P2;durP2;ratioP2
57249;SDS011;43102;52.014;-0.680;2023-02-15T00:00:01;34.00;;;22.30;;
57249;SDS011;43102;52.014;-0.680;2023-02-15T00:01:09;34.00;;;22.30;;
57249;SDS011;43102;52.014;-0.680;2023-02-15T00:02:01;34.00;;;22.30;;
57249;SDS011;43102;52.014;-0.680;2023-02-15T00:03:01;34.00;;;22.30;;
57249;SDS011;43102;52.014;-0.680;2023-02-15T00:04:01;34.90;;;21.50;;
57249;SDS011;43102;52.014;-0.680;2023-02-15T00:05:00;34.90;;;21.50;;
57249;SDS011;43102;52.014;-0.680;2023-02-15T00:06:01;34.90;;;21.50;;
57249;SDS011;43102;52.014;-0.680;2023-02-15T00:07:00;34.90;;;21.50;;
57249;SDS011;43102;52.014;-0.680;2023-02-15T00:08:00;34.90;;;21.50;;
57249;SDS011;43102;52.014;-0.680;2023-02-15T00:09:01;34.90;;;21.50;;
57249;SDS011;43102;52.014;-0.680;2023-02-15T00:10:00;34.90;;;21.50;;
57249;SDS011;43102;52.014;-0.680;2023-02-15T00:11:05;34.90;;;21.50;;
57249;SDS011;43102;52.014;-0.680;2023-02-15T00:12:00;34.90;;;21.50;;
57249;SDS011;43102;52.014;-0.680;2023-02-15T00:13:00;34.90;;;21.50;;
57249;SDS011;43102;52.014;-0.680;2023-02-15T00:14:00;34.90;;;21.50;;
57249;SDS011;43102;52.014;-0.680;2023-02-15T00:15:00;34.90;;;21.50;;
57249;SDS011;43102;52.014;-0.680;2023-02-15T00:16:02;34.90;;;21.50;;
57249;SDS011;43102;52.014;-0.680;2023-02-15T00:17:01;34.90;;;21.50;;
57249;SDS011;43102;52.014;-0.680;2023-02-15T00:18:00;34.90;;;21.50;;
57249;SDS011;43102;52.014;-0.680;2023-02-15T00:19:01;34.90;;;21.50;;
57249;SDS011;43102;52.014;-0.680;2023-02-15T00:20:01;34.90;;;21.50;;
57249;SDS011;43102;52.014;-0.680;2023-02-15T00:21:09;34.90;;;21.50;;
57249;SDS011;43102;52.014;-0.680;2023-02-15T00:22:00;34.90;;;21.50;;
57249;SDS011;43102;52.014;-0.680;2023-02-15T00:23:01;34.90;;;21.50;;
57249;SDS011;43102;52.014;-0.680;2023-02-15T00:24:02;34.90;;;21.50;;
57249;SDS011;43102;52.014;-0.680;2023-02-15T00:25:00;34.90;;;21.50;;
57249;SDS011;43102;52.014;-0.680;2023-02-15T00:26:05;34.90;;;21.50;;
57249;SDS011;43102;52.014;-0.680;2023-02-15T00:27:00;34.90;;;21.50;;
57249;SDS011;43102;52.014;-0.680;2023-02-15T00:28:00;34.90;;;21.50;;
57249;SDS011;43102;52.014;-0.680;2023-02-15T00:29:02;34.90;;;21.50;;
57249;SDS011;43102;52.014;-0.680;2023-02-15T00:30:01;34.90;;;21.50;;
57249;SDS011;43102;52.014;-0.680;2023-02-15T00:31:03;34.90;;;21.50;;
57249;SDS011;43102;52.014;-0.680;2023-02-15T00:32:01;34.90;;;21.50;;
57249;SDS011;43102;52.014;-0.680;2023-02-15T00:33:00;34.90;;;21.50;;
57249;SDS011;43102;52.014;-0.680;2023-02-15T00:34:02;40.60;;;25.40;;
57249;SDS011;43102;52.014;-0.680;2023-02-15T00:35:00;40.60;;;25.40;;
57249;SDS011;43102;52.014;-0.680;2023-02-15T00:36:02;40.60;;;25.40;;
57249;SDS011;43102;52.014;-0.680;2023-02-15T00:37:00;40.60;;;25.40;;
57249;SDS011;43102;52.014;-0.680;2023-02-15T00:38:00;40.60;;;25.40;;
57249;SDS011;43102;52.014;-0.680;2023-02-15T00:39:01;40.60;;;25.40;;
57249;SDS011;43102;52.014;-0.680;2023-02-15T00:40:01;40.60;;;25.40;;
57249;SDS011;43102;52.014;-0.680;2023-02-15T00:41:03;40.60;;;25.40;;
57249;SDS011;43102;52.014;-0.680;2023-02-15T00:42:00;40.60;;;25.40;;
57249;SDS011;43102;52.014;-0.680;2023-02-15T00:43:00;40.60;;;25.40;;
57249;SDS011;43102;52.014;-0.680;2023-02-15T00:44:00;40.60;;;25.40;;
57249;SDS011;43102;52.014;-0.680;2023-02-15T00:45:00;40.60;;;25.40;;
57249;SDS011;43102;52.014;-0.680;2023-02-15T00:46:02;40.60;;;25.40;;
57249;SDS011;43102;52.014;-0.680;2023-02-15T00:47:00;40.60;;;25.40;;
57249;SDS011;43102;52.014;-0.680;2023-02-15T00:48:00;40.60;;;25.40;;
57249;SDS011;43102;52.014;-0.680;2023-02-15T00:49:01;40.60;;;25.40;;
57249;SDS011;43102;52.014;-0.680;2023-02-15T00:50:00;40.60;;;25.40;;
57249;SDS011;43102;52.014;-0.680;2023-02-15T00:51:01;40.60;;;25.40;;
57249;SDS011;43102;52.014;-0.680;2023-02-15T00:52:00;40.60;;;25.40;;
57249;SDS011;43102;52.014;-0.680;2023-02-15T00:53:00;40.60;;;25.40;;
57249;SDS011;43102;52.014;-0.680;2023-02-15T00:54:00;40.60;;;25.40;;
57249;SDS011;43102;52.014;-0.680;2023-02-15T00:55:00;40.60;;;25.40;;
57249;SDS011;43102;52.014;-0.680;2023-02-15T00:56:01;40.60;;;25.40;;
57249;SDS011;43102;52.014;-0.680;2023-02-15T00:57:01;40.60;;;25.40;;
57249;SDS011;43102;52.014;-0.680;2023-02-15T00:58:00;40.60;;;25.40;;
57249;SDS011;43102;52.014;-0.680;2023-02-15T00:59:00;40.60;;;25.40;;
57249;SDS011;43102;52.014;-0.680;2023-02-15T01:00:00;40.60;;;25.40;;
57249;SDS011;43102;52.014;-0.680;2023-02-15T01:01:07;40.60;;;25.40;;
57249;SDS011;43102;52.014;-0.680;2023-02-15T01:02:00;40.60;;;25.40;;
57249;SDS011;43102;52.014;-0.680;2023-02-15T01:03:01;40.60;;;25.40;;
57249;SDS011;43102;52.014;-0.680;2023-02-15T01:04:01;38.00;;;21.70;;
57249;SDS011;43102;52.014;-0.680;2023-02-15T01:05:00;38.00;;;21.70;;
57249;SDS011;43102;52.014;-0.680;2023-02-15T01:06:02;38.00;;;21.70;;
57249;SDS011;43102;52.014;-0.680;2023-02-15T01:07:01;38.00;;;21.70;;
57249;SDS011;43102;52.014;-0.680;2023-02-15T01:08:00;38.00;;;21.70;;
57249;SDS011;43102;52.014;-0.680;2023-02-15T01:09:01;38.00;;;21.70;;
57249;SDS011;43102;52.014;-0.680;2023-02-15T01:10:00;38.00;;;21.70;;
57249;SDS011;43102;52.014;-0.680;2023-02-15T01:11:08;38.00;;;21.70;;
57249;SDS011;43102;52.014;-0.680;2023-02-15T01:12:00;38.00;;;21.70;;
57249;SDS011;43102;52.014;-0.680;2023-02-15T01:13:01;38.00;;;21.70;;
57249;SDS011;43102;52.014;-0.680;2023-02-15T01:14:00;38.00;;;21.70;;
57249;SDS011;43102;52.014;-0.680;2023-02-15T01:15:00;38.00;;;21.70;;
57249;SDS011;43102;52.014;-0.680;2023-02-15T01:16:01;38.00;;;21.70;;
57249;SDS011;43102;52.014;-0.680;2023-02-15T01:17:00;38.00;;;21.70;;
57249;SDS011;43102;52.014;-0.680;2023-02-15T01:18:01;38.00;;;21.70;;
57249;SDS011;43102;52.014;-0.680;2023-02-15T01:19:02;38.00;;;21.70;;
57249;SDS011;43102;52.014;-0.680;2023-02-15T01:20:01;38.00;;;21.70;;
57249;SDS011;43102;52.014;-0.680;2023-02-15T01:21:10;38.00;;;21.70;;
57249;SDS011;43102;52.014;-0.680;2023-02-15T01:22:00;38.00;;;21.70;;
57249;SDS011;43102;52.014;-0.680;2023-02-15T01:23:00;38.00;;;21.70;;
57249;SDS011;43102;52.014;-0.680;2023-02-15T01:24:01;38.00;;;21.70;;
57249;SDS011;43102;52.014;-0.680;2023-02-15T01:25:00;38.00;;;21.70;;
57249;SDS011;43102;52.014;-0.680;2023-02-15T01:26:03;38.00;;;21.70;;
57249;SDS011;43102;52.014;-0.680;2023-02-15T01:27:00;38.00;;;21.70;;
57249;SDS011;43102;52.014;-0.680;2023-02-15T01:28:01;38.00;;;21.70;;
57249;SDS011;43102;52.014;-0.680;2023-02-15T01:29:00;38.00;;;21.70;;
57249;SDS011;43102;52.014;-0.680;2023-02-15T01:30:01;38.00;;;21.70;;
57249;SDS011;43102;52.014;-0.680;2023-02-15T01:31:06;38.00;;;21.70;;
57249;SDS011;43102;52.014;-0.680;2023-02-15T01:32:01;38.00;;;21.70;;
57249;SDS011;43102;52.014;-0.680;2023-02-15T01:33:01;38.00;;;21.70;;
57249;SDS011;43102;52.014;-0.680;2023-02-15T01:34:00;37.20;;;22.60;;
57249;SDS011;43102;52.014;-0.680;2023-02-15T01:35:01;37.20;;;22.60;;
57249;SDS011;43102;52.014;-0.680;2023-02-15T01:36:01;37.20;;;22.60;;
57249;SDS011;43102;52.014;-0.680;2023-02-15T01:37:00;37.20;;;22.60;;
57249;SDS011;43102;52.014;-0.680;2023-02-15T01:38:00;37.20;;;22.60;;
57249;SDS011;43102;52.014;-0.680;2023-02-15T01:39:01;37.20;;;22.60;;
57249;SDS011;43102;52.014;-0.680;2023-02-15T01:40:01;37.20;;;22.60;;
57249;SDS011;43102;52.014;-0.680;2023-02-15T01:41:10;37.20;;;22.60;;
57249;SDS011;43102;52.014;-0.680;2023-02-15T01:42:00;37.20;;;22.60;;
57249;SDS011;43102;52.014;-0.680;2023-02-15T01:43:00;37.20;;;22.60;;
57249;SDS011;43102;52.014;-0.680;2023-02-15T01:44:02;37.20;;;22.60;;
57249;SDS011;43102;52.014;-0.680;2023-02-15T01:45:05;37.20;;;22.60;;
57249;SDS011;43102;52.014;-0.680;2023-02-15T01:46:01;37.20;;;22.60;;
57249;SDS011;43102;52.014;-0.680;2023-02-15T01:47:00;37.20;;;22.60;;
57249;SDS011;43102;52.014;-0.680;2023-02-15T01:48:20;37.20;;;22.60;;
57249;SDS011;43102;52.014;-0.680;2023-02-15T01:49:10;37.20;;;22.60;;
57249;SDS011;43102;52.014;-0.680;2023-02-15T01:50:09;37.20;;;22.60;;
57249;SDS011;43102;52.014;-0.680;2023-02-15T01:51:02;37.20;;;22.60;;
57249;SDS011;43102;52.014;-0.680;2023-02-15T01:52:01;37.20;;;22.60;;
57249;SDS011;43102;52.014;-0.680;2023-02-15T01:53:05;37.20;;;22.60;;
57249;SDS011;43102;52.014;-0.680;2023-02-15T01:54:06;37.20;;;22.60;;
57249;SDS011;43102;52.014;-0.680;2023-02-15T01:55:02;37.20;;;22.60;;
57249;SDS011;43102;52.014;-0.680;2023-02-15T01:56:06;37.20;;;22.60;;
57249;SDS011;43102;52.014;-0.680;2023-02-15T01:57:04;37.20;;;22.60;;
57249;SDS011;43102;52.014;-0.680;2023-02-15T01:58:00;37.20;;;22.60;;
57249;SDS011;43102;52.014;-0.680;2023-02-15T01:59:06;37.20;;;22.60;;
57249;SDS011;43102;52.014;-0.680;2023-02-15T02:00:04;37.20;;;22.60;;
57249;SDS011;43102;52.014;-0.680;2023-02-15T02:01:03;37.20;;;22.60;;
57249;SDS011;43102;52.014;-0.680;2023-02-15T02:02:02;37.20;;;22.60;;
57249;SDS011;43102;52.014;-0.680;2023-02-15T02:03:01;37.20;;;22.60;;
57249;SDS011;43102;52.014;-0.680;2023-02-15T02:05:03;41.30;;;23.80;;
57249;SDS011;43102;52.014;-0.680;2023-02-15T02:06:01;41.30;;;23.80;;
57249;SDS011;43102;52.014;-0.680;2023-02-15T02:07:01;41.30;;;23.80;;
57249;SDS011;43102;52.014;-0.680;2023-02-15T02:08:02;41.30;;;23.80;;
57249;SDS011;43102;52.014;-0.680;2023-02-15T02:09:01;41.30;;;23.80;;
57249;SDS011;43102;52.014;-0.680;2023-02-15T02:10:02;41.30;;;23.80;;
57249;SDS011;43102;52.014;-0.680;2023-02-15T02:11:00;41.30;;;23.80;;
57249;SDS011;43102;52.014;-0.680;2023-02-15T02:12:01;41.30;;;23.80;;
57249;SDS011;43102;52.014;-0.680;2023-02-15T02:13:04;41.30;;;23.80;;
57249;SDS011;43102;52.014;-0.680;2023-02-15T02:14:01;41.30;;;23.80;;
57249;SDS011;43102;52.014;-0.680;2023-02-15T02:15:01;41.30;;;23.80;;
57249;SDS011;43102;52.014;-0.680;2023-02-15T02:16:06;41.30;;;23.80;;
57249;SDS011;43102;52.014;-0.680;2023-02-15T02:18:08;41.30;;;23.80;;
57249;SDS011;43102;52.014;-0.680;2023-02-15T02:19:32;41.30;;;23.80;;
57249;SDS011;43102;52.014;-0.680;2023-02-15T02:21:07;41.30;;;23.80;;
57249;SDS011;43102;52.014;-0.680;2023-02-15T02:23:42;41.30;;;23.80;;
57249;SDS011;43102;52.014;-0.680;2023-02-15T02:24:18;41.30;;;23.80;;
57249;SDS011;43102;52.014;-0.680;2023-02-15T02:27:19;41.30;;;23.80;;
57249;SDS011;43102;52.014;-0.680;2023-02-15T02:31:39;41.30;;;23.80;;
57249;SDS011;43102;52.014;-0.680;2023-02-15T02:34:06;33.60;;;21.00;;
57249;SDS011;43102;52.014;-0.680;2023-02-15T02:35:01;33.60;;;21.00;;
57249;SDS011;43102;52.014;-0.680;2023-02-15T02:36:06;33.60;;;21.00;;
57249;SDS011;43102;52.014;-0.680;2023-02-15T02:37:08;33.60;;;21.00;;
57249;SDS011;43102;52.014;-0.680;2023-02-15T02:40:18;33.60;;;21.00;;
57249;SDS011;43102;52.014;-0.680;2023-02-15T02:42:09;33.60;;;21.00;;
57249;SDS011;43102;52.014;-0.680;2023-02-15T02:43:10;33.60;;;21.00;;
57249;SDS011;43102;52.014;-0.680;2023-02-15T02:44:08;33.60;;;21.00;;
57249;SDS011;43102;52.014;-0.680;2023-02-15T02:45:03;33.60;;;21.00;;
57249;SDS011;43102;52.014;-0.680;2023-02-15T02:46:10;33.60;;;21.00;;
57249;SDS011;43102;52.014;-0.680;2023-02-15T02:47:13;33.60;;;21.00;;
57249;SDS011;43102;52.014;-0.680;2023-02-15T02:48:07;33.60;;;21.00;;
57249;SDS011;43102;52.014;-0.680;2023-02-15T02:49:01;33.60;;;21.00;;
57249;SDS011;43102;52.014;-0.680;2023-02-15T02:50:04;33.60;;;21.00;;
57249;SDS011;43102;52.014;-0.680;2023-02-15T02:51:00;33.60;;;21.00;;
57249;SDS011;43102;52.014;-0.680;2023-02-15T02:52:05;33.60;;;21.00;;
57249;SDS011;43102;52.014;-0.680;2023-02-15T02:53:00;33.60;;;21.00;;
57249;SDS011;43102;52.014;-0.680;2023-02-15T02:54:05;33.60;;;21.00;;
57249;SDS011;43102;52.014;-0.680;2023-02-15T02:55:03;33.60;;;21.00;;
57249;SDS011;43102;52.014;-0.680;2023-02-15T02:56:12;33.60;;;21.00;;
57249;SDS011;43102;52.014;-0.680;2023-02-15T02:57:03;33.60;;;21.00;;
57249;SDS011;43102;52.014;-0.680;2023-02-15T02:58:13;33.60;;;21.00;;
57249;SDS011;43102;52.014;-0.680;2023-02-15T02:59:12;33.60;;;21.00;;
57249;SDS011;43102;52.014;-0.680;2023-02-15T03:00:02;33.60;;;21.00;;
57249;SDS011;43102;52.014;-0.680;2023-02-15T03:01:09;33.60;;;21.00;;
57249;SDS011;43102;52.014;-0.680;2023-02-15T03:02:13;33.60;;;21.00;;
57249;SDS011;43102;52.014;-0.680;2023-02-15T03:03:06;33.60;;;21.00;;
57249;SDS011;43102;52.014;-0.680;2023-02-15T03:04:10;34.90;;;20.00;;
57249;SDS011;43102;52.014;-0.680;2023-02-15T03:05:04;34.90;;;20.00;;
57249;SDS011;43102;52.014;-0.680;2023-02-15T03:06:06;34.90;;;20.00;;
57249;SDS011;43102;52.014;-0.680;2023-02-15T03:07:04;34.90;;;20.00;;
57249;SDS011;43102;52.014;-0.680;2023-02-15T03:08:05;34.90;;;20.00;;
57249;SDS011;43102;52.014;-0.680;2023-02-15T03:09:07;34.90;;;20.00;;
57249;SDS011;43102;52.014;-0.680;2023-02-15T03:10:03;34.90;;;20.00;;
57249;SDS011;43102;52.014;-0.680;2023-02-15T03:11:03;34.90;;;20.00;;
57249;SDS011;43102;52.014;-0.680;2023-02-15T03:12:03;34.90;;;20.00;;
57249;SDS011;43102;52.014;-0.680;2023-02-15T03:13:00;34.90;;;20.00;;
57249;SDS011;43102;52.014;-0.680;2023-02-15T03:14:00;34.90;;;20.00;;
57249;SDS011;43102;52.014;-0.680;2023-02-15T03:15:13;34.90;;;20.00;;
57249;SDS011;43102;52.014;-0.680;2023-02-15T03:16:12;34.90;;;20.00;;
57249;SDS011;43102;52.014;-0.680;2023-02-15T03:17:01;34.90;;;20.00;;
57249;SDS011;43102;52.014;-0.680;2023-02-15T03:18:02;34.90;;;20.00;;
57249;SDS011;43102;52.014;-0.680;2023-02-15T03:19:08;34.90;;;20.00;;
57249;SDS011;43102;52.014;-0.680;2023-02-15T03:20:06;34.90;;;20.00;;
57249;SDS011;43102;52.014;-0.680;2023-02-15T03:21:01;34.90;;;20.00;;
57249;SDS011;43102;52.014;-0.680;2023-02-15T03:23:04;34.90;;;20.00;;
57249;SDS011;43102;52.014;-0.680;2023-02-15T03:24:06;34.90;;;20.00;;
57249;SDS011;43102;52.014;-0.680;2023-02-15T03:25:05;34.90;;;20.00;;
57249;SDS011;43102;52.014;-0.680;2023-02-15T03:26:04;34.90;;;20.00;;
57249;SDS011;43102;52.014;-0.680;2023-02-15T03:27:02;34.90;;;20.00;;
57249;SDS011;43102;52.014;-0.680;2023-02-15T03:28:05;34.90;;;20.00;;
57249;SDS011;43102;52.014;-0.680;2023-02-15T03:29:02;34.90;;;20.00;;
57249;SDS011;43102;52.014;-0.680;2023-02-15T03:30:02;34.90;;;20.00;;
57249;SDS011;43102;52.014;-0.680;2023-02-15T03:31:04;34.90;;;20.00;;
57249;SDS011;43102;52.014;-0.680;2023-02-15T03:32:04;34.90;;;20.00;;
57249;SDS011;43102;52.014;-0.680;2023-02-15T03:33:01;34.90;;;20.00;;
57249;SDS011;43102;52.014;-0.680;2023-02-15T03:34:04;32.90;;;20.20;;
57249;SDS011;43102;52.014;-0.680;2023-02-15T03:35:01;32.90;;;20.20;;
57249;SDS011;43102;52.014;-0.680;2023-02-15T03:36:08;32.90;;;20.20;;
57249;SDS011;43102;52.014;-0.680;2023-02-15T03:37:05;32.90;;;20.20;;
57249;SDS011;43102;52.014;-0.680;2023-02-15T03:38:02;32.90;;;20.20;;
57249;SDS011;43102;52.014;-0.680;2023-02-15T03:39:09;32.90;;;20.20;;
57249;SDS011;43102;52.014;-0.680;2023-02-15T03:40:23;32.90;;;20.20;;
57249;SDS011;43102;52.014;-0.680;2023-02-15T03:41:09;32.90;;;20.20;;
57249;SDS011;43102;52.014;-0.680;2023-02-15T03:42:07;32.90;;;20.20;;
57249;SDS011;43102;52.014;-0.680;2023-02-15T03:43:09;32.90;;;20.20;;
57249;SDS011;43102;52.014;-0.680;2023-02-15T03:44:07;32.90;;;20.20;;
57249;SDS011;43102;52.014;-0.680;2023-02-15T03:45:05;32.90;;;20.20;;
57249;SDS011;43102;52.014;-0.680;2023-02-15T03:46:06;32.90;;;20.20;;
57249;SDS011;43102;52.014;-0.680;2023-02-15T03:47:13;32.90;;;20.20;;
57249;SDS011;43102;52.014;-0.680;2023-02-15T03:48:02;32.90;;;20.20;;
57249;SDS011;43102;52.014;-0.680;2023-02-15T03:49:09;32.90;;;20.20;;
57249;SDS011;43102;52.014;-0.680;2023-02-15T03:50:05;32.90;;;20.20;;
57249;SDS011;43102;52.014;-0.680;2023-02-15T03:51:17;32.90;;;20.20;;
57249;SDS011;43102;52.014;-0.680;2023-02-15T03:52:02;32.90;;;20.20;;
57249;SDS011;43102;52.014;-0.680;2023-02-15T03:53:03;32.90;;;20.20;;
57249;SDS011;43102;52.014;-0.680;2023-02-15T03:54:03;32.90;;;20.20;;
57249;SDS011;43102;52.014;-0.680;2023-02-15T03:55:00;32.90;;;20.20;;
57249;SDS011;43102;52.014;-0.680;2023-02-15T03:56:01;32.90;;;20.20;;
57249;SDS011;43102;52.014;-0.680;2023-02-15T03:58:10;32.90;;;20.20;;
57249;SDS011;43102;52.014;-0.680;2023-02-15T03:59:10;32.90;;;20.20;;
57249;SDS011;43102;52.014;-0.680;2023-02-15T04:00:16;32.90;;;20.20;;
57249;SDS011;43102;52.014;-0.680;2023-02-15T04:02:14;32.90;;;20.20;;
57249;SDS011;43102;52.014;-0.680;2023-02-15T04:03:09;32.90;;;20.20;;
57249;SDS011;43102;52.014;-0.680;2023-02-15T04:04:05;33.20;;;21.40;;
57249;SDS011;43102;52.014;-0.680;2023-02-15T04:05:00;33.20;;;21.40;;
57249;SDS011;43102;52.014;-0.680;2023-02-15T04:06:02;33.20;;;21.40;;
57249;SDS011;43102;52.014;-0.680;2023-02-15T04:07:02;33.20;;;21.40;;
57249;SDS011;43102;52.014;-0.680;2023-02-15T04:08:01;33.20;;;21.40;;
57249;SDS011;43102;52.014;-0.680;2023-02-15T04:09:11;33.20;;;21.40;;
57249;SDS011;43102;52.014;-0.680;2023-02-15T04:10:10;33.20;;;21.40;;
57249;SDS011;43102;52.014;-0.680;2023-02-15T04:11:00;33.20;;;21.40;;
57249;SDS011;43102;52.014;-0.680;2023-02-15T04:12:00;33.20;;;21.40;;
57249;SDS011;43102;52.014;-0.680;2023-02-15T04:13:00;33.20;;;21.40;;
57249;SDS011;43102;52.014;-0.680;2023-02-15T04:14:10;33.20;;;21.40;;
57249;SDS011;43102;52.014;-0.680;2023-02-15T04:15:12;33.20;;;21.40;;
57249;SDS011;43102;52.014;-0.680;2023-02-15T04:16:04;33.20;;;21.40;;
57249;SDS011;43102;52.014;-0.680;2023-02-15T04:17:00;33.20;;;21.40;;
57249;SDS011;43102;52.014;-0.680;2023-02-15T04:18:02;33.20;;;21.40;;
57249;SDS011;43102;52.014;-0.680;2023-02-15T04:19:10;33.20;;;21.40;;
57249;SDS011;43102;52.014;-0.680;2023-02-15T04:20:10;33.20;;;21.40;;
57249;SDS011;43102;52.014;-0.680;2023-02-15T04:21:10;33.20;;;21.40;;
57249;SDS011;43102;52.014;-0.680;2023-02-15T04:22:10;33.20;;;21.40;;
57249;SDS011;43102;52.014;-0.680;2023-02-15T04:23:10;33.20;;;21.40;;
57249;SDS011;43102;52.014;-0.680;2023-02-15T04:24:10;33.20;;;21.40;;
57249;SDS011;43102;52.014;-0.680;2023-02-15T04:25:10;33.20;;;21.40;;
57249;SDS011;43102;52.014;-0.680;2023-02-15T04:26:04;33.20;;;21.40;;
57249;SDS011;43102;52.014;-0.680;2023-02-15T04:27:02;33.20;;;21.40;;
57249;SDS011;43102;52.014;-0.680;2023-02-15T04:28:00;33.20;;;21.40;;
57249;SDS011;43102;52.014;-0.680;2023-02-15T04:29:00;33.20;;;21.40;;
57249;SDS011;43102;52.014;-0.680;2023-02-15T04:30:00;33.20;;;21.40;;
57249;SDS011;43102;52.014;-0.680;2023-02-15T04:31:00;33.20;;;21.40;;
57249;SDS011;43102;52.014;-0.680;2023-02-15T04:32:01;33.20;;;21.40;;
57249;SDS011;43102;52.014;-0.680;2023-02-15T04:33:00;33.20;;;21.40;;
57249;SDS011;43102;52.014;-0.680;2023-02-15T04:34:00;32.20;;;19.30;;
57249;SDS011;43102;52.014;-0.680;2023-02-15T04:35:01;32.20;;;19.30;;
57249;SDS011;43102;52.014;-0.680;2023-02-15T04:36:01;32.20;;;19.30;;
57249;SDS011;43102;52.014;-0.680;2023-02-15T04:37:00;32.20;;;19.30;;
57249;SDS011;43102;52.014;-0.680;2023-02-15T04:38:00;32.20;;;19.30;;
57249;SDS011;43102;52.014;-0.680;2023-02-15T04:39:00;32.20;;;19.30;;
57249;SDS011;43102;52.014;-0.680;2023-02-15T04:40:01;32.20;;;19.30;;
57249;SDS011;43102;52.014;-0.680;2023-02-15T04:41:00;32.20;;;19.30;;
57249;SDS011;43102;52.014;-0.680;2023-02-15T04:42:00;32.20;;;19.30;;
57249;SDS011;43102;52.014;-0.680;2023-02-15T04:43:00;32.20;;;19.30;;
57249;SDS011;43102;52.014;-0.680;2023-02-15T04:44:01;32.20;;;19.30;;
57249;SDS011;43102;52.014;-0.680;2023-02-15T04:45:00;32.20;;;19.30;;
57249;SDS011;43102;52.014;-0.680;2023-02-15T04:46:01;32.20;;;19.30;;
57249;SDS011;43102;52.014;-0.680;2023-02-15T04:47:00;32.20;;;19.30;;
57249;SDS011;43102;52.014;-0.680;2023-02-15T04:48:01;32.20;;;19.30;;
57249;SDS011;43102;52.014;-0.680;2023-02-15T04:49:00;32.20;;;19.30;;
57249;SDS011;43102;52.014;-0.680;2023-02-15T04:50:00;32.20;;;19.30;;
57249;SDS011;43102;52.014;-0.680;2023-02-15T04:51:06;32.20;;;19.30;;
57249;SDS011;43102;52.014;-0.680;2023-02-15T04:52:00;32.20;;;19.30;;
57249;SDS011;43102;52.014;-0.680;2023-02-15T04:53:00;32.20;;;19.30;;
57249;SDS011;43102;52.014;-0.680;2023-02-15T04:54:00;32.20;;;19.30;;
57249;SDS011;43102;52.014;-0.680;2023-02-15T04:55:00;32.20;;;19.30;;
57249;SDS011;43102;52.014;-0.680;2023-02-15T04:56:01;32.20;;;19.30;;
57249;SDS011;43102;52.014;-0.680;2023-02-15T04:57:01;32.20;;;19.30;;
57249;SDS011;43102;52.014;-0.680;2023-02-15T04:58:00;32.20;;;19.30;;
57249;SDS011;43102;52.014;-0.680;2023-02-15T04:59:00;32.20;;;19.30;;
57249;SDS011;43102;52.014;-0.680;2023-02-15T05:00:00;32.20;;;19.30;;
57249;SDS011;43102;52.014;-0.680;2023-02-15T05:01:01;32.20;;;19.30;;
57249;SDS011;43102;52.014;-0.680;2023-02-15T05:02:01;32.20;;;19.30;;
57249;SDS011;43102;52.014;-0.680;2023-02-15T05:03:00;32.20;;;19.30;;
57249;SDS011;43102;52.014;-0.680;2023-02-15T05:04:00;51.90;;;29.70;;
57249;SDS011;43102;52.014;-0.680;2023-02-15T05:05:00;51.90;;;29.70;;
57249;SDS011;43102;52.014;-0.680;2023-02-15T05:06:02;51.90;;;29.70;;
57249;SDS011;43102;52.014;-0.680;2023-02-15T05:07:00;51.90;;;29.70;;
57249;SDS011;43102;52.014;-0.680;2023-02-15T05:08:00;51.90;;;29.70;;
57249;SDS011;43102;52.014;-0.680;2023-02-15T05:09:01;51.90;;;29.70;;
57249;SDS011;43102;52.014;-0.680;2023-02-15T05:10:00;51.90;;;29.70;;
57249;SDS011;43102;52.014;-0.680;2023-02-15T05:11:00;51.90;;;29.70;;
57249;SDS011;43102;52.014;-0.680;2023-02-15T05:12:00;51.90;;;29.70;;
57249;SDS011;43102;52.014;-0.680;2023-02-15T05:13:00;51.90;;;29.70;;
57249;SDS011;43102;52.014;-0.680;2023-02-15T05:14:00;51.90;;;29.70;;
57249;SDS011;43102;52.014;-0.680;2023-02-15T05:15:00;51.90;;;29.70;;
57249;SDS011;43102;52.014;-0.680;2023-02-15T05:16:01;51.90;;;29.70;;
57249;SDS011;43102;52.014;-0.680;2023-02-15T05:17:03;51.90;;;29.70;;
57249;SDS011;43102;52.014;-0.680;2023-02-15T05:18:01;51.90;;;29.70;;
57249;SDS011;43102;52.014;-0.680;2023-02-15T05:19:01;51.90;;;29.70;;
57249;SDS011;43102;52.014;-0.680;2023-02-15T05:20:00;51.90;;;29.70;;
57249;SDS011;43102;52.014;-0.680;2023-02-15T05:21:00;51.90;;;29.70;;
57249;SDS011;43102;52.014;-0.680;2023-02-15T05:22:00;51.90;;;29.70;;
57249;SDS011;43102;52.014;-0.680;2023-02-15T05:23:00;51.90;;;29.70;;
57249;SDS011;43102;52.014;-0.680;2023-02-15T05:24:13;51.90;;;29.70;;
57249;SDS011;43102;52.014;-0.680;2023-02-15T05:25:10;51.90;;;29.70;;
57249;SDS011;43102;52.014;-0.680;2023-02-15T05:26:11;51.90;;;29.70;;
57249;SDS011;43102;52.014;-0.680;2023-02-15T05:27:10;51.90;;;29.70;;
57249;SDS011;43102;52.014;-0.680;2023-02-15T05:28:10;51.90;;;29.70;;
57249;SDS011;43102;52.014;-0.680;2023-02-15T05:29:00;51.90;;;29.70;;
57249;SDS011;43102;52.014;-0.680;2023-02-15T05:30:01;51.90;;;29.70;;
57249;SDS011;43102;52.014;-0.680;2023-02-15T05:31:05;51.90;;;29.70;;
57249;SDS011;43102;52.014;-0.680;2023-02-15T05:32:02;51.90;;;29.70;;
57249;SDS011;43102;52.014;-0.680;2023-02-15T05:33:00;51.90;;;29.70;;
57249;SDS011;43102;52.014;-0.680;2023-02-15T05:34:01;60.20;;;34.70;;
57249;SDS011;43102;52.014;-0.680;2023-02-15T05:35:00;60.20;;;34.70;;
57249;SDS011;43102;52.014;-0.680;2023-02-15T05:36:02;60.20;;;34.70;;
57249;SDS011;43102;52.014;-0.680;2023-02-15T05:37:00;60.20;;;34.70;;
57249;SDS011;43102;52.014;-0.680;2023-02-15T05:38:00;60.20;;;34.70;;
57249;SDS011;43102;52.014;-0.680;2023-02-15T05:39:00;60.20;;;34.70;;
57249;SDS011;43102;52.014;-0.680;2023-02-15T05:40:00;60.20;;;34.70;;
57249;SDS011;43102;52.014;-0.680;2023-02-15T05:41:00;60.20;;;34.70;;
57249;SDS011;43102;52.014;-0.680;2023-02-15T05:42:00;60.20;;;34.70;;
57249;SDS011;43102;52.014;-0.680;2023-02-15T05:43:00;60.20;;;34.70;;
57249;SDS011;43102;52.014;-0.680;2023-02-15T05:44:00;60.20;;;34.70;;
57249;SDS011;43102;52.014;-0.680;2023-02-15T05:45:01;60.20;;;34.70;;
57249;SDS011;43102;52.014;-0.680;2023-02-15T05:46:02;60.20;;;34.70;;
57249;SDS011;43102;52.014;-0.680;2023-02-15T05:47:02;60.20;;;34.70;;
57249;SDS011;43102;52.014;-0.680;2023-02-15T05:48:00;60.20;;;34.70;;
57249;SDS011;43102;52.014;-0.680;2023-02-15T05:49:00;60.20;;;34.70;;
57249;SDS011;43102;52.014;-0.680;2023-02-15T05:50:00;60.20;;;34.70;;
57249;SDS011;43102;52.014;-0.680;2023-02-15T05:51:04;60.20;;;34.70;;
57249;SDS011;43102;52.014;-0.680;2023-02-15T05:52:01;60.20;;;34.70;;
57249;SDS011;43102;52.014;-0.680;2023-02-15T05:53:01;60.20;;;34.70;;
57249;SDS011;43102;52.014;-0.680;2023-02-15T05:54:00;60.20;;;34.70;;
57249;SDS011;43102;52.014;-0.680;2023-02-15T05:55:02;60.20;;;34.70;;
57249;SDS011;43102;52.014;-0.680;2023-02-15T05:56:02;60.20;;;34.70;;
57249;SDS011;43102;52.014;-0.680;2023-02-15T05:57:00;60.20;;;34.70;;
57249;SDS011;43102;52.014;-0.680;2023-02-15T05:58:00;60.20;;;34.70;;
57249;SDS011;43102;52.014;-0.680;2023-02-15T05:59:00;60.20;;;34.70;;
57249;SDS011;43102;52.014;-0.680;2023-02-15T06:00:04;60.20;;;34.70;;
57249;SDS011;43102;52.014;-0.680;2023-02-15T06:01:07;60.20;;;34.70;;
57249;SDS011;43102;52.014;-0.680;2023-02-15T06:02:00;60.20;;;34.70;;